sensor_id;sensor_type;location;lat;lon;timestamp;noise_LAeq;noise_LA_min;noise_LA_max;noise_LA01;noise_LA95
51665;Laerm;37751;52.408;12.536;2022-09-16T00:00:09;51.12;41.27;65.30;;
51665;Laerm;37751;52.408;12.536;2022-09-16T00:02:36;51.22;41.77;70.35;;
51665;Laerm;37751;52.408;12.536;2022-09-16T00:05:06;52.72;43.29;65.28;;
51665;Laerm;37751;52.408;12.536;2022-09-16T00:07:32;51.69;40.47;69.21;;
51665;Laerm;37751;52.408;12.536;2022-09-16T00:09:59;56.68;41.90;71.31;;
51665;Laerm;37751;52.408;12.536;2022-09-16T00:12:27;49.28;39.67;63.63;;
51665;Laerm;37751;52.408;12.536;2022-09-16T00:14:54;55.71;41.82;72.38;;
51665;Laerm;37751;52.408;12.536;2022-09-16T00:17:21;50.99;41.25;63.74;;
51665;Laerm;37751;52.408;12.536;2022-09-16T00:19:48;51.41;40.65;64.26;;
51665;Laerm;37751;52.408;12.536;2022-09-16T00:22:17;44.15;41.09;55.45;;
51665;Laerm;37751;52.408;12.536;2022-09-16T00:24:43;52.98;40.18;72.83;;
51665;Laerm;37751;52.408;12.536;2022-09-16T00:27:10;49.80;41.66;62.46;;
51665;Laerm;37751;52.408;12.536;2022-09-16T00:29:37;47.12;42.12;60.50;;
51665;Laerm;37751;52.408;12.536;2022-09-16T00:32:03;51.18;42.90;65.22;;
51665;Laerm;37751;52.408;12.536;2022-09-16T00:34:30;52.43;41.19;69.85;;
51665;Laerm;37751;52.408;12.536;2022-09-16T00:36:57;48.22;42.02;62.43;;
51665;Laerm;37751;52.408;12.536;2022-09-16T00:39:23;51.63;42.44;66.04;;
51665;Laerm;37751;52.408;12.536;2022-09-16T00:41:50;47.90;41.33;62.78;;
51665;Laerm;37751;52.408;12.536;2022-09-16T00:44:54;51.76;40.88;66.36;;
51665;Laerm;37751;52.408;12.536;2022-09-16T00:47:32;52.43;41.34;69.53;;
51665;Laerm;37751;52.408;12.536;2022-09-16T00:50:29;52.36;41.59;65.52;;
51665;Laerm;37751;52.408;12.536;2022-09-16T00:52:58;50.50;40.82;64.83;;
51665;Laerm;37751;52.408;12.536;2022-09-16T00:55:30;53.83;41.73;68.89;;
51665;Laerm;37751;52.408;12.536;2022-09-16T00:58:05;54.39;42.67;67.62;;
51665;Laerm;37751;52.408;12.536;2022-09-16T01:00:35;50.31;41.90;63.97;;
51665;Laerm;37751;52.408;12.536;2022-09-16T01:03:04;52.15;42.95;67.13;;
51665;Laerm;37751;52.408;12.536;2022-09-16T01:05:32;47.41;41.66;60.89;;
51665;Laerm;37751;52.408;12.536;2022-09-16T01:07:59;53.96;43.05;66.69;;
51665;Laerm;37751;52.408;12.536;2022-09-16T01:10:26;52.30;40.42;68.77;;
51665;Laerm;37751;52.408;12.536;2022-09-16T01:13:02;56.03;45.88;70.83;;
51665;Laerm;37751;52.408;12.536;2022-09-16T01:15:40;51.79;44.21;67.47;;
51665;Laerm;37751;52.408;12.536;2022-09-16T01:21:42;51.56;42.81;72.04;;
51665;Laerm;37751;52.408;12.536;2022-09-16T01:33:11;52.26;43.87;65.23;;
51665;Laerm;37751;52.408;12.536;2022-09-16T01:50:05;52.00;43.07;66.29;;
51665;Laerm;37751;52.408;12.536;2022-09-16T01:53:00;51.70;41.89;67.53;;
51665;Laerm;37751;52.408;12.536;2022-09-16T01:55:35;53.80;42.96;66.32;;
51665;Laerm;37751;52.408;12.536;2022-09-16T02:01:08;53.91;44.66;69.11;;
51665;Laerm;37751;52.408;12.536;2022-09-16T02:03:39;52.35;43.27;70.06;;
51665;Laerm;37751;52.408;12.536;2022-09-16T02:06:14;53.06;43.26;65.00;;
51665;Laerm;37751;52.408;12.536;2022-09-16T02:08:54;57.23;41.27;74.57;;
51665;Laerm;37751;52.408;12.536;2022-09-16T02:11:23;53.97;43.75;67.13;;
51665;Laerm;37751;52.408;12.536;2022-09-16T02:14:02;56.08;44.95;70.49;;
51665;Laerm;37751;52.408;12.536;2022-09-16T02:16:40;54.38;45.14;71.17;;
51665;Laerm;37751;52.408;12.536;2022-09-16T02:19:13;55.32;44.78;67.31;;
51665;Laerm;37751;52.408;12.536;2022-09-16T02:21:41;53.16;46.12;67.07;;
51665;Laerm;37751;52.408;12.536;2022-09-16T02:24:16;53.50;45.61;66.25;;
51665;Laerm;37751;52.408;12.536;2022-09-16T02:26:49;58.07;48.25;72.75;;
51665;Laerm;37751;52.408;12.536;2022-09-16T02:29:22;55.37;47.48;69.40;;
51665;Laerm;37751;52.408;12.536;2022-09-16T02:31:53;56.29;46.20;68.61;;
51665;Laerm;37751;52.408;12.536;2022-09-16T02:34:28;58.98;45.29;74.41;;
51665;Laerm;37751;52.408;12.536;2022-09-16T02:37:07;57.01;46.62;67.01;;
51665;Laerm;37751;52.408;12.536;2022-09-16T02:39:37;59.96;46.87;72.29;;
51665;Laerm;37751;52.408;12.536;2022-09-16T02:42:06;58.96;49.50;68.02;;
51665;Laerm;37751;52.408;12.536;2022-09-16T02:44:33;59.12;48.36;71.31;;
51665;Laerm;37751;52.408;12.536;2022-09-16T02:49:57;61.09;52.19;76.60;;
51665;Laerm;37751;52.408;12.536;2022-09-16T02:58:05;58.07;49.78;67.04;;
51665;Laerm;37751;52.408;12.536;2022-09-16T03:00:38;60.09;49.61;70.64;;
51665;Laerm;37751;52.408;12.536;2022-09-16T03:03:07;59.22;48.88;73.52;;
51665;Laerm;37751;52.408;12.536;2022-09-16T03:05:34;58.21;47.76;70.37;;
51665;Laerm;37751;52.408;12.536;2022-09-16T03:08:01;61.52;48.36;73.60;;
51665;Laerm;37751;52.408;12.536;2022-09-16T03:10:38;61.15;49.46;76.04;;
51665;Laerm;37751;52.408;12.536;2022-09-16T03:13:20;60.07;48.22;73.63;;
51665;Laerm;37751;52.408;12.536;2022-09-16T03:16:09;59.02;49.35;70.37;;
51665;Laerm;37751;52.408;12.536;2022-09-16T03:19:20;61.27;48.68;71.44;;
51665;Laerm;37751;52.408;12.536;2022-09-16T03:24:51;60.56;47.46;70.67;;
51665;Laerm;37751;52.408;12.536;2022-09-16T03:27:30;59.70;47.35;71.01;;
51665;Laerm;37751;52.408;12.536;2022-09-16T03:30:06;59.43;47.34;71.08;;
51665;Laerm;37751;52.408;12.536;2022-09-16T03:32:40;60.52;47.73;70.43;;
51665;Laerm;37751;52.408;12.536;2022-09-16T03:35:36;63.11;50.92;73.77;;
51665;Laerm;37751;52.408;12.536;2022-09-16T03:38:06;63.83;50.83;83.23;;
51665;Laerm;37751;52.408;12.536;2022-09-16T03:40:34;61.29;47.72;70.32;;
51665;Laerm;37751;52.408;12.536;2022-09-16T03:43:12;61.29;51.75;70.46;;
51665;Laerm;37751;52.408;12.536;2022-09-16T03:45:42;60.92;49.35;70.96;;
51665;Laerm;37751;52.408;12.536;2022-09-16T03:48:10;60.50;45.27;69.43;;
51665;Laerm;37751;52.408;12.536;2022-09-16T03:50:37;63.53;49.89;81.39;;
51665;Laerm;37751;52.408;12.536;2022-09-16T03:53:04;60.55;50.40;69.73;;
51665;Laerm;37751;52.408;12.536;2022-09-16T03:55:31;62.61;50.19;77.48;;
51665;Laerm;37751;52.408;12.536;2022-09-16T03:57:57;62.47;50.10;71.44;;
51665;Laerm;37751;52.408;12.536;2022-09-16T04:00:24;62.36;47.76;71.37;;
51665;Laerm;37751;52.408;12.536;2022-09-16T04:02:51;61.67;51.17;77.17;;
51665;Laerm;37751;52.408;12.536;2022-09-16T04:05:17;63.20;49.91;75.57;;
51665;Laerm;37751;52.408;12.536;2022-09-16T04:07:44;62.44;50.87;74.03;;
51665;Laerm;37751;52.408;12.536;2022-09-16T04:10:11;61.95;51.89;73.30;;
51665;Laerm;37751;52.408;12.536;2022-09-16T04:12:38;61.08;52.51;72.59;;
51665;Laerm;37751;52.408;12.536;2022-09-16T04:15:05;63.87;53.67;80.21;;
51665;Laerm;37751;52.408;12.536;2022-09-16T04:17:33;62.90;49.39;78.11;;
51665;Laerm;37751;52.408;12.536;2022-09-16T04:20:00;63.23;50.45;82.45;;
51665;Laerm;37751;52.408;12.536;2022-09-16T04:22:28;62.00;49.09;72.30;;
51665;Laerm;37751;52.408;12.536;2022-09-16T04:24:56;63.87;50.08;79.85;;
51665;Laerm;37751;52.408;12.536;2022-09-16T04:27:23;62.25;48.04;70.80;;
51665;Laerm;37751;52.408;12.536;2022-09-16T04:29:50;61.17;48.62;71.41;;
51665;Laerm;37751;52.408;12.536;2022-09-16T04:32:17;62.40;52.70;76.47;;
51665;Laerm;37751;52.408;12.536;2022-09-16T04:34:44;62.27;52.15;71.86;;
51665;Laerm;37751;52.408;12.536;2022-09-16T04:37:11;62.95;50.60;71.86;;
51665;Laerm;37751;52.408;12.536;2022-09-16T04:39:37;61.45;50.41;72.22;;
51665;Laerm;37751;52.408;12.536;2022-09-16T04:42:04;64.48;53.58;81.95;;
51665;Laerm;37751;52.408;12.536;2022-09-16T04:44:32;63.34;48.83;76.19;;
51665;Laerm;37751;52.408;12.536;2022-09-16T04:46:59;63.56;53.12;76.65;;
51665;Laerm;37751;52.408;12.536;2022-09-16T04:49:25;63.62;54.07;79.31;;
51665;Laerm;37751;52.408;12.536;2022-09-16T04:51:52;63.92;52.59;75.06;;
51665;Laerm;37751;52.408;12.536;2022-09-16T04:54:19;62.18;51.95;73.24;;
51665;Laerm;37751;52.408;12.536;2022-09-16T04:56:45;63.42;55.09;74.64;;
51665;Laerm;37751;52.408;12.536;2022-09-16T04:59:12;62.80;49.58;74.61;;
51665;Laerm;37751;52.408;12.536;2022-09-16T05:01:39;62.56;49.17;71.05;;
51665;Laerm;37751;52.408;12.536;2022-09-16T05:04:06;67.05;52.40;90.19;;
51665;Laerm;37751;52.408;12.536;2022-09-16T05:06:38;61.36;50.78;84.93;;
51665;Laerm;37751;52.408;12.536;2022-09-16T05:09:07;65.09;53.14;74.37;;
51665;Laerm;37751;52.408;12.536;2022-09-16T05:11:36;63.17;53.00;72.60;;
51665;Laerm;37751;52.408;12.536;2022-09-16T05:14:07;62.05;51.48;70.16;;
51665;Laerm;37751;52.408;12.536;2022-09-16T05:16:35;64.16;54.08;73.92;;
51665;Laerm;37751;52.408;12.536;2022-09-16T05:19:02;63.12;50.50;70.60;;
51665;Laerm;37751;52.408;12.536;2022-09-16T05:21:34;63.77;53.11;74.34;;
51665;Laerm;37751;52.408;12.536;2022-09-16T05:24:05;62.84;54.19;70.56;;
51665;Laerm;37751;52.408;12.536;2022-09-16T05:26:38;62.48;55.10;71.44;;
51665;Laerm;37751;52.408;12.536;2022-09-16T05:29:14;64.35;56.33;74.28;;
51665;Laerm;37751;52.408;12.536;2022-09-16T05:31:43;61.92;51.27;70.42;;
51665;Laerm;37751;52.408;12.536;2022-09-16T05:34:16;63.56;55.26;74.76;;
51665;Laerm;37751;52.408;12.536;2022-09-16T05:36:43;63.62;54.53;75.85;;
51665;Laerm;37751;52.408;12.536;2022-09-16T05:39:14;63.60;54.16;71.82;;
51665;Laerm;37751;52.408;12.536;2022-09-16T05:41:57;62.97;52.52;78.73;;
51665;Laerm;37751;52.408;12.536;2022-09-16T05:44:25;63.37;54.47;74.01;;
51665;Laerm;37751;52.408;12.536;2022-09-16T05:46:53;63.35;53.25;75.80;;
51665;Laerm;37751;52.408;12.536;2022-09-16T05:49:19;63.53;50.07;80.27;;
51665;Laerm;37751;52.408;12.536;2022-09-16T05:51:47;61.22;49.76;70.41;;
51665;Laerm;37751;52.408;12.536;2022-09-16T05:54:15;64.89;51.15;78.87;;
51665;Laerm;37751;52.408;12.536;2022-09-16T05:56:44;63.09;50.35;72.50;;
51665;Laerm;37751;52.408;12.536;2022-09-16T05:59:13;63.00;52.73;71.69;;
51665;Laerm;37751;52.408;12.536;2022-09-16T06:01:40;62.51;52.31;71.09;;
51665;Laerm;37751;52.408;12.536;2022-09-16T06:04:11;61.15;49.54;70.83;;
51665;Laerm;37751;52.408;12.536;2022-09-16T06:06:44;63.67;51.07;75.94;;
51665;Laerm;37751;52.408;12.536;2022-09-16T06:09:16;69.59;51.50;91.90;;
51665;Laerm;37751;52.408;12.536;2022-09-16T06:11:46;65.70;52.68;80.55;;
51665;Laerm;37751;52.408;12.536;2022-09-16T06:14:14;65.94;55.02;84.58;;
51665;Laerm;37751;52.408;12.536;2022-09-16T06:16:42;62.38;50.63;72.29;;
51665;Laerm;37751;52.408;12.536;2022-09-16T06:19:14;64.58;53.71;80.89;;
51665;Laerm;37751;52.408;12.536;2022-09-16T06:21:43;63.12;53.59;73.16;;
51665;Laerm;37751;52.408;12.536;2022-09-16T06:24:12;62.68;50.31;71.98;;
51665;Laerm;37751;52.408;12.536;2022-09-16T06:26:41;62.61;53.91;72.75;;
51665;Laerm;37751;52.408;12.536;2022-09-16T06:29:08;62.70;53.47;76.87;;
51665;Laerm;37751;52.408;12.536;2022-09-16T06:31:36;63.79;54.95;71.73;;
51665;Laerm;37751;52.408;12.536;2022-09-16T06:34:05;73.83;56.07;88.58;;
51665;Laerm;37751;52.408;12.536;2022-09-16T06:36:35;63.86;53.59;75.75;;
51665;Laerm;37751;52.408;12.536;2022-09-16T06:39:10;63.43;51.40;74.22;;
51665;Laerm;37751;52.408;12.536;2022-09-16T06:41:37;64.72;53.09;83.94;;
51665;Laerm;37751;52.408;12.536;2022-09-16T06:44:03;64.79;52.53;88.69;;
51665;Laerm;37751;52.408;12.536;2022-09-16T06:46:30;62.44;50.19;79.08;;
51665;Laerm;37751;52.408;12.536;2022-09-16T06:48:57;64.11;55.17;73.44;;
51665;Laerm;37751;52.408;12.536;2022-09-16T06:51:30;62.65;54.25;76.04;;
51665;Laerm;37751;52.408;12.536;2022-09-16T06:54:01;63.94;54.73;74.27;;
51665;Laerm;37751;52.408;12.536;2022-09-16T06:56:28;62.11;52.96;72.16;;
51665;Laerm;37751;52.408;12.536;2022-09-16T06:58:55;63.08;51.27;81.84;;
51665;Laerm;37751;52.408;12.536;2022-09-16T07:01:27;62.32;53.64;76.67;;
51665;Laerm;37751;52.408;12.536;2022-09-16T07:03:55;62.98;53.27;72.36;;
51665;Laerm;37751;52.408;12.536;2022-09-16T07:06:27;63.47;54.47;72.45;;
51665;Laerm;37751;52.408;12.536;2022-09-16T07:09:14;62.65;51.69;73.09;;
51665;Laerm;37751;52.408;12.536;2022-09-16T07:11:41;62.15;53.50;70.84;;
51665;Laerm;37751;52.408;12.536;2022-09-16T07:14:08;62.27;50.37;71.74;;
51665;Laerm;37751;52.408;12.536;2022-09-16T07:16:35;63.99;52.49;81.51;;
51665;Laerm;37751;52.408;12.536;2022-09-16T07:19:01;63.11;53.41;74.44;;
51665;Laerm;37751;52.408;12.536;2022-09-16T07:21:29;64.60;52.36;79.30;;
51665;Laerm;37751;52.408;12.536;2022-09-16T07:24:00;63.01;54.20;78.93;;
51665;Laerm;37751;52.408;12.536;2022-09-16T07:26:31;64.03;54.18;77.96;;
51665;Laerm;37751;52.408;12.536;2022-09-16T07:29:01;63.23;53.70;73.00;;
51665;Laerm;37751;52.408;12.536;2022-09-16T07:31:33;62.48;54.06;75.68;;
51665;Laerm;37751;52.408;12.536;2022-09-16T07:34:01;62.40;53.42;71.05;;
51665;Laerm;37751;52.408;12.536;2022-09-16T07:36:37;62.52;54.47;70.94;;
51665;Laerm;37751;52.408;12.536;2022-09-16T07:39:04;62.91;54.49;70.49;;
51665;Laerm;37751;52.408;12.536;2022-09-16T07:41:34;63.74;52.64;73.16;;
51665;Laerm;37751;52.408;12.536;2022-09-16T07:44:03;62.71;53.61;73.86;;
51665;Laerm;37751;52.408;12.536;2022-09-16T07:46:33;63.72;53.21;81.33;;
51665;Laerm;37751;52.408;12.536;2022-09-16T07:49:02;68.63;60.53;81.89;;
51665;Laerm;37751;52.408;12.536;2022-09-16T07:51:29;69.52;55.89;88.55;;
51665;Laerm;37751;52.408;12.536;2022-09-16T07:54:08;66.94;53.92;83.64;;
51665;Laerm;37751;52.408;12.536;2022-09-16T07:56:38;61.81;50.42;74.14;;
51665;Laerm;37751;52.408;12.536;2022-09-16T07:59:09;64.60;52.99;77.48;;
51665;Laerm;37751;52.408;12.536;2022-09-16T08:01:41;63.25;53.53;72.07;;
51665;Laerm;37751;52.408;12.536;2022-09-16T08:04:09;62.91;53.67;74.98;;
51665;Laerm;37751;52.408;12.536;2022-09-16T08:06:38;61.31;51.79;70.33;;
51665;Laerm;37751;52.408;12.536;2022-09-16T08:09:05;61.65;51.72;71.87;;
51665;Laerm;37751;52.408;12.536;2022-09-16T08:11:51;63.55;53.39;77.11;;
51665;Laerm;37751;52.408;12.536;2022-09-16T08:14:18;63.44;51.67;75.69;;
51665;Laerm;37751;52.408;12.536;2022-09-16T08:16:45;63.20;52.09;72.57;;
51665;Laerm;37751;52.408;12.536;2022-09-16T08:19:12;62.74;54.84;76.60;;
51665;Laerm;37751;52.408;12.536;2022-09-16T08:21:39;63.81;53.26;73.40;;
51665;Laerm;37751;52.408;12.536;2022-09-16T08:24:05;63.11;52.59;73.20;;
51665;Laerm;37751;52.408;12.536;2022-09-16T08:26:32;64.06;54.79;74.80;;
51665;Laerm;37751;52.408;12.536;2022-09-16T08:28:58;64.13;56.16;74.89;;
51665;Laerm;37751;52.408;12.536;2022-09-16T08:31:41;62.56;53.91;71.99;;
51665;Laerm;37751;52.408;12.536;2022-09-16T08:34:08;63.35;55.78;74.60;;
51665;Laerm;37751;52.408;12.536;2022-09-16T08:36:34;63.76;54.49;74.90;;
51665;Laerm;37751;52.408;12.536;2022-09-16T08:39:01;62.45;54.16;70.60;;
51665;Laerm;37751;52.408;12.536;2022-09-16T08:50:33;63.23;54.67;73.61;;
51665;Laerm;37751;52.408;12.536;2022-09-16T08:53:11;65.38;50.96;78.00;;
51665;Laerm;37751;52.408;12.536;2022-09-16T08:55:46;63.88;55.31;77.49;;
51665;Laerm;37751;52.408;12.536;2022-09-16T08:58:25;63.04;52.79;70.51;;
51665;Laerm;37751;52.408;12.536;2022-09-16T09:01:13;65.41;53.91;79.42;;
51665;Laerm;37751;52.408;12.536;2022-09-16T09:03:44;64.25;52.66;76.81;;
51665;Laerm;37751;52.408;12.536;2022-09-16T09:09:53;66.19;55.79;81.08;;
51665;Laerm;37751;52.408;12.536;2022-09-16T09:12:38;65.48;54.58;81.85;;
51665;Laerm;37751;52.408;12.536;2022-09-16T09:15:44;62.75;51.23;81.35;;
51665;Laerm;37751;52.408;12.536;2022-09-16T09:23:51;62.84;52.34;74.74;;
51665;Laerm;37751;52.408;12.536;2022-09-16T09:26:49;63.64;50.83;72.23;;
51665;Laerm;37751;52.408;12.536;2022-09-16T09:32:39;63.80;53.55;76.52;;
51665;Laerm;37751;52.408;12.536;2022-09-16T09:38:41;70.00;51.39;92.49;;
51665;Laerm;37751;52.408;12.536;2022-09-16T09:41:31;65.38;54.24;83.51;;
51665;Laerm;37751;52.408;12.536;2022-09-16T09:44:40;63.61;54.53;74.99;;
51665;Laerm;37751;52.408;12.536;2022-09-16T09:47:18;65.23;55.15;78.83;;
51665;Laerm;37751;52.408;12.536;2022-09-16T09:49:54;81.51;53.36;101.49;;
51665;Laerm;37751;52.408;12.536;2022-09-16T09:52:35;68.60;57.25;88.14;;
51665;Laerm;37751;52.408;12.536;2022-09-16T09:55:18;63.08;54.89;74.74;;
51665;Laerm;37751;52.408;12.536;2022-09-16T10:00:50;64.57;57.03;74.94;;
51665;Laerm;37751;52.408;12.536;2022-09-16T10:03:21;61.56;54.32;69.43;;
51665;Laerm;37751;52.408;12.536;2022-09-16T10:05:48;62.66;54.77;71.35;;
51665;Laerm;37751;52.408;12.536;2022-09-16T10:08:31;63.48;52.29;74.97;;
51665;Laerm;37751;52.408;12.536;2022-09-16T10:11:13;62.56;53.99;72.17;;
51665;Laerm;37751;52.408;12.536;2022-09-16T10:13:58;63.34;53.00;73.48;;
51665;Laerm;37751;52.408;12.536;2022-09-16T10:16:33;62.81;55.11;70.60;;
51665;Laerm;37751;52.408;12.536;2022-09-16T10:19:26;62.97;52.59;70.67;;
51665;Laerm;37751;52.408;12.536;2022-09-16T10:22:29;62.52;53.23;74.25;;
51665;Laerm;37751;52.408;12.536;2022-09-16T10:25:03;62.84;53.68;73.31;;
51665;Laerm;37751;52.408;12.536;2022-09-16T10:27:35;63.08;53.35;74.92;;
51665;Laerm;37751;52.408;12.536;2022-09-16T10:30:19;63.71;52.19;75.58;;
51665;Laerm;37751;52.408;12.536;2022-09-16T10:33:09;64.36;54.74;78.45;;
51665;Laerm;37751;52.408;12.536;2022-09-16T10:35:38;71.17;59.88;87.90;;
51665;Laerm;37751;52.408;12.536;2022-09-16T10:41:03;64.64;55.12;80.91;;
51665;Laerm;37751;52.408;12.536;2022-09-16T10:43:31;62.72;53.97;73.87;;
51665;Laerm;37751;52.408;12.536;2022-09-16T10:45:58;65.42;53.52;77.21;;
51665;Laerm;37751;52.408;12.536;2022-09-16T10:48:28;63.29;54.49;86.34;;
51665;Laerm;37751;52.408;12.536;2022-09-16T10:51:02;62.60;53.83;71.57;;
51665;Laerm;37751;52.408;12.536;2022-09-16T10:53:34;62.75;56.07;79.93;;
51665;Laerm;37751;52.408;12.536;2022-09-16T10:56:19;63.82;54.66;78.40;;
51665;Laerm;37751;52.408;12.536;2022-09-16T10:58:46;61.44;53.43;69.46;;
51665;Laerm;37751;52.408;12.536;2022-09-16T11:01:25;62.44;54.99;73.69;;
51665;Laerm;37751;52.408;12.536;2022-09-16T11:07:56;66.85;55.75;88.89;;
51665;Laerm;37751;52.408;12.536;2022-09-16T11:25:49;66.43;55.37;82.01;;
51665;Laerm;37751;52.408;12.536;2022-09-16T11:30:36;62.83;52.78;73.58;;
51665;Laerm;37751;52.408;12.536;2022-09-16T11:33:20;63.80;53.08;72.03;;
51665;Laerm;37751;52.408;12.536;2022-09-16T11:42:01;64.14;55.50;73.22;;
51665;Laerm;37751;52.408;12.536;2022-09-16T11:44:43;61.44;53.38;70.41;;
51665;Laerm;37751;52.408;12.536;2022-09-16T11:56:16;64.09;53.39;86.42;;
51665;Laerm;37751;52.408;12.536;2022-09-16T12:01:52;61.56;51.66;70.91;;
51665;Laerm;37751;52.408;12.536;2022-09-16T12:04:25;63.82;54.25;74.68;;
51665;Laerm;37751;52.408;12.536;2022-09-16T12:09:47;63.57;53.70;73.57;;
51665;Laerm;37751;52.408;12.536;2022-09-16T12:12:19;63.50;54.23;74.09;;
51665;Laerm;37751;52.408;12.536;2022-09-16T12:14:54;63.98;52.66;77.35;;
51665;Laerm;37751;52.408;12.536;2022-09-16T12:17:30;64.15;56.71;78.51;;
51665;Laerm;37751;52.408;12.536;2022-09-16T12:20:39;65.44;55.24;81.39;;
51665;Laerm;37751;52.408;12.536;2022-09-16T12:23:21;63.19;54.22;76.01;;
51665;Laerm;37751;52.408;12.536;2022-09-16T12:32:13;63.83;52.73;75.59;;
51665;Laerm;37751;52.408;12.536;2022-09-16T12:34:53;63.21;54.63;78.13;;
51665;Laerm;37751;52.408;12.536;2022-09-16T12:37:48;63.11;54.40;79.65;;
51665;Laerm;37751;52.408;12.536;2022-09-16T12:40:40;62.82;54.13;80.86;;
51665;Laerm;37751;52.408;12.536;2022-09-16T13:00:39;63.38;54.61;76.47;;
51665;Laerm;37751;52.408;12.536;2022-09-16T13:03:17;62.34;52.95;77.25;;
51665;Laerm;37751;52.408;12.536;2022-09-16T13:05:48;62.90;54.87;73.20;;
51665;Laerm;37751;52.408;12.536;2022-09-16T13:08:26;62.98;54.89;75.44;;
51665;Laerm;37751;52.408;12.536;2022-09-16T13:11:01;61.82;55.47;78.96;;
51665;Laerm;37751;52.408;12.536;2022-09-16T13:13:56;61.56;52.52;71.35;;
51665;Laerm;37751;52.408;12.536;2022-09-16T13:16:35;62.55;46.69;75.95;;
51665;Laerm;37751;52.408;12.536;2022-09-16T13:25:20;63.71;52.50;73.91;;
51665;Laerm;37751;52.408;12.536;2022-09-16T13:27:59;63.68;53.28;74.83;;
51665;Laerm;37751;52.408;12.536;2022-09-16T13:30:37;62.11;49.23;75.81;;
51665;Laerm;37751;52.408;12.536;2022-09-16T13:33:24;63.17;52.15;74.04;;
51665;Laerm;37751;52.408;12.536;2022-09-16T13:38:52;61.80;51.74;72.89;;
51665;Laerm;37751;52.408;12.536;2022-09-16T13:41:42;62.22;52.25;72.31;;
51665;Laerm;37751;52.408;12.536;2022-09-16T13:52:39;63.24;50.78;82.01;;
51665;Laerm;37751;52.408;12.536;2022-09-16T13:55:20;67.87;51.09;88.84;;
51665;Laerm;37751;52.408;12.536;2022-09-16T13:58:01;62.93;50.03;81.05;;
51665;Laerm;37751;52.408;12.536;2022-09-16T14:01:07;62.87;54.27;77.61;;
51665;Laerm;37751;52.408;12.536;2022-09-16T14:10:03;63.67;53.19;74.98;;
51665;Laerm;37751;52.408;12.536;2022-09-16T14:12:55;62.61;53.30;76.51;;
51665;Laerm;37751;52.408;12.536;2022-09-16T14:15:25;62.85;52.53;72.01;;
51665;Laerm;37751;52.408;12.536;2022-09-16T14:17:58;65.54;56.14;84.89;;
51665;Laerm;37751;52.408;12.536;2022-09-16T14:20:27;63.65;56.42;77.09;;
51665;Laerm;37751;52.408;12.536;2022-09-16T14:23:14;64.71;54.93;74.67;;
51665;Laerm;37751;52.408;12.536;2022-09-16T14:25:42;63.76;51.86;74.52;;
51665;Laerm;37751;52.408;12.536;2022-09-16T14:28:25;63.03;55.31;79.10;;
51665;Laerm;37751;52.408;12.536;2022-09-16T14:30:59;62.66;50.20;81.14;;
51665;Laerm;37751;52.408;12.536;2022-09-16T14:33:36;62.71;53.36;79.07;;
51665;Laerm;37751;52.408;12.536;2022-09-16T14:36:12;63.40;52.75;77.77;;
51665;Laerm;37751;52.408;12.536;2022-09-16T14:38:46;62.39;52.40;75.58;;
51665;Laerm;37751;52.408;12.536;2022-09-16T14:41:42;62.97;51.46;78.01;;
51665;Laerm;37751;52.408;12.536;2022-09-16T14:44:19;62.38;53.36;74.15;;
51665;Laerm;37751;52.408;12.536;2022-09-16T14:47:01;62.42;53.77;74.25;;
51665;Laerm;37751;52.408;12.536;2022-09-16T14:49:38;64.26;54.21;81.16;;
51665;Laerm;37751;52.408;12.536;2022-09-16T14:52:25;62.59;51.78;75.22;;
51665;Laerm;37751;52.408;12.536;2022-09-16T14:54:55;63.51;49.86;79.10;;
51665;Laerm;37751;52.408;12.536;2022-09-16T14:57:25;62.84;53.08;75.09;;
51665;Laerm;37751;52.408;12.536;2022-09-16T14:59:56;62.80;54.31;76.79;;
51665;Laerm;37751;52.408;12.536;2022-09-16T15:02:35;62.96;51.15;71.07;;
51665;Laerm;37751;52.408;12.536;2022-09-16T15:08:23;62.95;52.17;72.63;;
51665;Laerm;37751;52.408;12.536;2022-09-16T15:10:55;62.99;53.98;74.43;;
51665;Laerm;37751;52.408;12.536;2022-09-16T15:13:30;63.06;54.21;76.47;;
51665;Laerm;37751;52.408;12.536;2022-09-16T15:16:14;63.27;56.13;80.73;;
51665;Laerm;37751;52.408;12.536;2022-09-16T15:19:03;63.61;51.64;82.52;;
51665;Laerm;37751;52.408;12.536;2022-09-16T15:21:36;63.71;51.96;83.91;;
51665;Laerm;37751;52.408;12.536;2022-09-16T15:24:19;61.10;52.08;71.10;;
51665;Laerm;37751;52.408;12.536;2022-09-16T15:26:48;62.03;51.16;79.12;;
51665;Laerm;37751;52.408;12.536;2022-09-16T15:31:48;62.76;52.24;76.94;;
51665;Laerm;37751;52.408;12.536;2022-09-16T15:36:56;67.48;52.74;90.90;;
51665;Laerm;37751;52.408;12.536;2022-09-16T15:39:31;65.40;54.74;80.81;;
51665;Laerm;37751;52.408;12.536;2022-09-16T15:44:31;61.25;53.66;71.64;;
51665;Laerm;37751;52.408;12.536;2022-09-16T15:47:03;62.72;56.04;74.92;;
51665;Laerm;37751;52.408;12.536;2022-09-16T15:49:34;62.69;53.99;73.94;;
51665;Laerm;37751;52.408;12.536;2022-09-16T15:52:08;64.71;53.18;80.67;;
51665;Laerm;37751;52.408;12.536;2022-09-16T15:54:50;61.59;53.81;73.00;;
51665;Laerm;37751;52.408;12.536;2022-09-16T15:57:37;64.15;56.62;79.38;;
51665;Laerm;37751;52.408;12.536;2022-09-16T16:00:10;63.56;55.14;74.96;;
51665;Laerm;37751;52.408;12.536;2022-09-16T16:02:52;64.72;54.98;84.75;;
51665;Laerm;37751;52.408;12.536;2022-09-16T16:05:28;64.08;53.98;77.95;;
51665;Laerm;37751;52.408;12.536;2022-09-16T16:07:59;61.25;52.51;70.85;;
51665;Laerm;37751;52.408;12.536;2022-09-16T16:10:33;62.18;51.95;76.30;;
51665;Laerm;37751;52.408;12.536;2022-09-16T16:13:01;62.68;51.85;73.43;;
51665;Laerm;37751;52.408;12.536;2022-09-16T16:15:34;61.32;50.47;74.66;;
51665;Laerm;37751;52.408;12.536;2022-09-16T16:18:06;62.82;55.04;72.10;;
51665;Laerm;37751;52.408;12.536;2022-09-16T16:20:35;61.90;52.76;74.22;;
51665;Laerm;37751;52.408;12.536;2022-09-16T16:23:03;61.98;52.14;71.48;;
51665;Laerm;37751;52.408;12.536;2022-09-16T16:25:29;60.72;50.74;70.71;;
51665;Laerm;37751;52.408;12.536;2022-09-16T16:27:56;61.91;53.22;70.92;;
51665;Laerm;37751;52.408;12.536;2022-09-16T16:30:23;60.73;50.69;72.05;;
51665;Laerm;37751;52.408;12.536;2022-09-16T16:32:49;61.32;51.88;71.06;;
51665;Laerm;37751;52.408;12.536;2022-09-16T16:35:16;65.81;54.19;84.11;;
51665;Laerm;37751;52.408;12.536;2022-09-16T16:37:43;62.55;53.30;75.39;;
51665;Laerm;37751;52.408;12.536;2022-09-16T16:40:13;63.07;51.37;76.23;;
51665;Laerm;37751;52.408;12.536;2022-09-16T16:42:41;61.52;50.71;71.63;;
51665;Laerm;37751;52.408;12.536;2022-09-16T16:45:11;61.16;53.43;71.06;;
51665;Laerm;37751;52.408;12.536;2022-09-16T16:47:39;62.38;52.64;75.13;;
51665;Laerm;37751;52.408;12.536;2022-09-16T16:50:06;62.57;53.15;78.73;;
51665;Laerm;37751;52.408;12.536;2022-09-16T16:52:32;61.71;51.51;74.27;;
51665;Laerm;37751;52.408;12.536;2022-09-16T16:54:59;61.42;52.13;73.62;;
51665;Laerm;37751;52.408;12.536;2022-09-16T16:57:26;62.64;50.81;83.49;;